This is the latest recevied weather packets stored in our database for station/object IK0OZB-10. If no packets are shown the sender has not sent any weather packets the latest 10 day(s).
| Time | Temp. | Humidity | Pressure | Rain* | Wind** | Luminosity | Snow |
|---|---|---|---|---|---|---|---|
| 1777689007 | 11.67° C | 58% | 1023.5 hPa | - | - | - | - |
| 1777665604 | 16.67° C | 55% | 1023 hPa | - | - | - | - |
| 1777664704 | 16.67° C | 58% | 1022.8 hPa | - | - | - | - |
| 1777659303 | 18.89° C | 54% | 1021.7 hPa | - | - | - | - |
| 1777649401 | 22.78° C | 45% | 1020.7 hPa | - | - | - | - |
| 1777648501 | 23.33° C | 44% | 1020.8 hPa | - | - | - | - |
| 1777645801 | 21.67° C | 47% | 1021 hPa | - | - | - | - |
| 1777644901 | 22.22° C | 47% | 1021 hPa | - | - | - | - |
| 1777644001 | 22.22° C | 48% | 1021.1 hPa | - | - | - | - |
| 1777642200 | 22.22° C | 48% | 1021.4 hPa | - | - | - | - |
| 1777641300 | 21.67° C | 48% | 1021.5 hPa | - | - | - | - |
| 1777639500 | 21.11° C | 53% | 1021.6 hPa | - | - | - | - |
| 1777638600 | 20.56° C | 51% | 1021.7 hPa | - | - | - | - |
| 1777637700 | 20° C | 56% | 1021.8 hPa | - | - | - | - |
| 1777636800 | 20° C | 56% | 1021.9 hPa | - | - | - | - |
| 1777634999 | 18.89° C | 53% | 1021.9 hPa | - | - | - | - |
| 1777634099 | 18.89° C | 53% | 1021.9 hPa | - | - | - | - |
| 1777633199 | 18.89° C | 51% | 1022 hPa | - | - | - | - |
| 1777631399 | 18.89° C | 51% | 1022.1 hPa | - | - | - | - |
| 1777630499 | 18.89° C | 49% | 1022 hPa | - | - | - | - |
| 1777629598 | 18.89° C | 47% | 1022.1 hPa | - | - | - | - |
| 1777628698 | 18.33° C | 49% | 1021.9 hPa | - | - | - | - |
| 1777627798 | 18.89° C | 51% | 1021.9 hPa | - | - | - | - |
| 1777626898 | 18.33° C | 49% | 1021.8 hPa | - | - | - | - |
| 1777625998 | 18.33° C | 47% | 1021.8 hPa | - | - | - | - |
* Rain since midnight (hover to see other rain measurements)
** Current wind speed in m/s (hover to see current wind gust speed)